Time;durP1;ratioP1;P1;durP2;ratioP2;P2;SDS_P1;SDS_P2;PMS_P1;PMS_P2;Temp;Humidity;BMP_temperature;BMP_pressure;BME280_temperature;BME280_humidity;BME280_pressure;Samples;Min_cycle;Max_cycle;Signal;HPM_P1;HPM_P2
2023/08/28 00:00:05;;;;;;;5.95;4.13;;;;;;;25.65;48.50;99257.28;5051167;28;20038;-44
2023/08/28 00:02:31;;;;;;;6.60;3.80;;;;;;;25.57;48.52;99266.25;5051142;28;20021;-48
2023/08/28 00:04:56;;;;;;;6.18;3.53;;;;;;;25.70;48.50;99268.03;5051204;28;20027;-44
2023/08/28 00:07:21;;;;;;;5.45;4.03;;;;;;;25.54;49.14;99264.13;5051388;28;20017;-45
2023/08/28 00:09:47;;;;;;;6.25;3.60;;;;;;;25.66;48.87;99264.31;5051380;28;20452;-47
2023/08/28 00:12:12;;;;;;;5.60;3.80;;;;;;;25.81;49.22;99260.38;5051044;28;20029;-44
2023/08/28 00:14:38;;;;;;;7.47;3.95;;;;;;;25.78;49.41;99255.56;5051065;28;20094;-47
2023/08/28 00:17:05;;;;;;;14.43;10.00;;;;;;;25.46;50.42;99249.38;5051083;28;20021;-47
2023/08/28 00:19:31;;;;;;;7.40;4.35;;;;;;;25.73;50.34;99250.25;5050878;28;20116;-47
2023/08/28 00:21:56;;;;;;;6.75;4.18;;;;;;;25.65;50.24;99254.56;5051015;28;20053;-47
2023/08/28 00:24:22;;;;;;;6.60;4.10;;;;;;;25.61;51.29;99245.41;5050850;28;20044;-46
2023/08/28 00:26:48;;;;;;;5.90;3.85;;;;;;;25.46;51.70;99248.56;5050534;28;20029;-46
2023/08/28 00:29:14;;;;;;;7.35;4.38;;;;;;;25.60;51.51;99246.53;5051009;28;20092;-46
2023/08/28 00:31:39;;;;;;;4.53;3.83;;;;;;;25.56;52.27;99245.56;5050750;28;20536;-44
2023/08/28 00:34:05;;;;;;;5.47;3.90;;;;;;;25.35;52.74;99239.88;5050806;28;20028;-47
2023/08/28 00:36:30;;;;;;;7.85;4.20;;;;;;;25.48;52.74;99238.97;5050680;28;20027;-44
2023/08/28 00:38:57;;;;;;;5.85;4.00;;;;;;;25.44;52.75;99239.91;5050945;28;20507;-44
2023/08/28 00:41:22;;;;;;;8.25;4.38;;;;;;;25.32;53.48;99221.41;5050523;28;20526;-44
2023/08/28 00:43:48;;;;;;;7.35;4.40;;;;;;;25.37;53.79;99234.91;5050684;28;20040;-47
2023/08/28 00:46:14;;;;;;;5.05;4.30;;;;;;;25.29;54.17;99236.47;5050671;28;20088;-47
2023/08/28 00:48:40;;;;;;;5.93;4.00;;;;;;;25.32;54.36;99237.75;5050775;28;20040;-43
2023/08/28 00:51:06;;;;;;;5.93;4.32;;;;;;;25.26;55.19;99234.38;5050567;28;20033;-47
2023/08/28 00:53:32;;;;;;;7.03;4.28;;;;;;;25.17;55.64;99237.03;5050493;28;20366;-46
2023/08/28 00:55:57;;;;;;;5.68;4.05;;;;;;;25.31;55.60;99230.72;5050647;28;20025;-46
2023/08/28 00:58:23;;;;;;;6.45;4.25;;;;;;;25.20;56.35;99241.03;5050396;28;20431;-45
2023/08/28 01:00:49;;;;;;;6.40;3.92;;;;;;;25.10;56.87;99241.31;5050465;28;20037;-47
2023/08/28 01:03:14;;;;;;;8.13;4.63;;;;;;;25.04;57.07;99231.69;5050176;28;20020;-47
2023/08/28 01:06:14;;;;;;;6.95;4.50;;;;;;;25.07;57.17;99231.84;5050309;28;20108;-46
2023/08/28 01:09:14;;;;;;;6.43;4.25;;;;;;;24.95;57.40;99229.69;5050395;28;20029;-48
2023/08/28 01:12:29;;;;;;;8.33;4.63;;;;;;;24.92;57.80;99227.63;5013094;28;20100;-47
2023/08/28 01:15:16;;;;;;;7.43;4.57;;;;;;;25.05;57.03;99227.84;5038119;28;20271;-47
2023/08/28 01:17:43;;;;;;;5.35;4.43;;;;;;;24.85;57.91;99221.81;5050342;28;20029;-47
2023/08/28 01:20:15;;;;;;;7.18;4.18;;;;;;;25.08;57.25;99225.31;5050195;28;20056;-45
2023/08/28 01:23:11;;;;;;;7.35;4.22;;;;;;;24.94;57.70;99217.22;5050484;28;20017;-47
2023/08/28 01:25:37;;;;;;;7.90;4.63;;;;;;;24.87;57.84;99218.78;5050185;28;20055;-47
2023/08/28 01:28:03;;;;;;;7.57;4.60;;;;;;;24.97;57.29;99216.59;5050106;28;20028;-46
2023/08/28 01:30:29;;;;;;;6.57;5.13;;;;;;;24.66;58.43;99216.56;5049990;28;20021;-46
2023/08/28 01:32:54;;;;;;;7.65;4.28;;;;;;;24.57;58.81;99216.50;5050476;28;20029;-45
2023/08/28 01:35:24;;;;;;;6.57;4.50;;;;;;;24.73;58.26;99211.50;5050607;28;20023;-46
2023/08/28 01:38:05;;;;;;;7.07;4.70;;;;;;;24.49;59.01;99210.97;5051645;28;20163;-47
2023/08/28 01:40:54;;;;;;;7.15;4.30;;;;;;;24.72;58.31;99214.53;5054778;28;20194;-47
2023/08/28 01:43:23;;;;;;;7.07;4.70;;;;;;;24.82;57.83;99216.97;5054630;28;20040;-46
2023/08/28 01:45:50;;;;;;;8.70;4.40;;;;;;;24.56;58.74;99214.09;5054680;28;20044;-48
2023/08/28 01:48:16;;;;;;;8.07;4.55;;;;;;;24.56;58.79;99212.19;5054555;28;20372;-43
2023/08/28 01:50:41;;;;;;;6.90;4.60;;;;;;;24.64;58.78;99216.09;5054787;28;20050;-44
2023/08/28 01:53:07;;;;;;;5.53;4.60;;;;;;;24.58;59.17;99226.28;5054684;28;20104;-47
2023/08/28 01:55:44;;;;;;;8.57;4.90;;;;;;;24.83;58.13;99215.06;5054372;28;20013;-45
2023/08/28 01:58:10;;;;;;;8.85;4.90;;;;;;;24.63;58.67;99213.66;5054729;28;20021;-47
2023/08/28 02:00:36;;;;;;;8.23;4.60;;;;;;;24.57;58.71;99212.97;5054329;28;20075;-45
2023/08/28 02:03:01;;;;;;;8.07;4.93;;;;;;;24.46;58.74;99212.38;5054225;28;20059;-46
2023/08/28 02:05:26;;;;;;;7.75;4.82;;;;;;;24.36;59.28;99213.44;5054421;28;20549;-45
2023/08/28 02:07:52;;;;;;;7.75;5.07;;;;;;;24.26;59.48;99210.16;5054416;28;20484;-46
2023/08/28 02:10:17;;;;;;;7.78;4.90;;;;;;;24.37;58.68;99206.09;5054229;28;20389;-45
2023/08/28 02:12:43;;;;;;;5.88;4.68;;;;;;;24.32;58.83;99190.69;5054543;28;20028;-46
2023/08/28 02:15:09;;;;;;;9.55;5.03;;;;;;;24.29;58.45;99190.50;5054443;28;20057;-45
2023/08/28 02:17:34;;;;;;;7.18;4.55;;;;;;;24.13;59.21;99190.06;5054209;28;20075;-48
2023/08/28 02:20:00;;;;;;;6.40;4.70;;;;;;;24.19;59.13;99195.06;5054368;28;20031;-45
2023/08/28 02:22:25;;;;;;;8.07;4.78;;;;;;;24.18;59.52;99185.31;5053687;28;20484;-44
2023/08/28 02:24:50;;;;;;;8.18;5.28;;;;;;;24.42;58.70;99192.38;5053780;28;20104;-46
2023/08/28 02:27:16;;;;;;;9.02;4.90;;;;;;;24.39;58.67;99199.25;5053683;28;20116;-44
2023/08/28 02:29:41;;;;;;;10.18;5.80;;;;;;;23.87;59.73;99189.81;5053776;28;20032;-43
2023/08/28 02:32:07;;;;;;;8.65;5.03;;;;;;;23.79;59.96;99202.22;5053901;28;20017;-47
2023/08/28 02:34:32;;;;;;;9.50;5.13;;;;;;;23.80;60.34;99198.41;5054235;28;20016;-50
2023/08/28 02:36:58;;;;;;;9.43;5.28;;;;;;;24.11;58.75;99195.00;5054237;28;20479;-45
2023/08/28 02:39:23;;;;;;;8.90;4.95;;;;;;;23.96;58.56;99196.94;5054061;28;20029;-46
2023/08/28 02:41:49;;;;;;;6.97;4.60;;;;;;;24.16;57.30;99198.41;5053961;28;20044;-44
2023/08/28 02:44:14;;;;;;;20.65;6.40;;;;;;;23.94;58.73;99193.72;5053561;28;20021;-49
2023/08/28 02:46:39;;;;;;;11.48;5.57;;;;;;;23.61;59.62;99191.16;5053642;28;20100;-44
2023/08/28 02:49:05;;;;;;;11.05;5.50;;;;;;;23.53;60.61;99194.59;5053427;28;20103;-44
2023/08/28 02:51:30;;;;;;;9.30;5.20;;;;;;;23.61;60.46;99193.88;5053312;28;20032;-48
2023/08/28 02:53:56;;;;;;;10.82;5.45;;;;;;;23.68;60.20;99198.06;5053571;28;20652;-47
2023/08/28 02:56:26;;;;;;;13.60;5.55;;;;;;;23.84;59.66;99206.72;5053418;28;20458;-46
2023/08/28 02:58:53;;;;;;;9.45;5.10;;;;;;;23.98;58.49;99199.38;5053297;28;20579;-47
2023/08/28 03:01:20;;;;;;;8.48;5.15;;;;;;;24.00;58.30;99197.94;5053156;28;20115;-46
2023/08/28 03:03:46;;;;;;;10.55;5.30;;;;;;;24.00;57.67;99195.22;5053353;28;20029;-47
2023/08/28 03:06:13;;;;;;;14.90;9.77;;;;;;;23.89;56.71;99195.75;5053306;28;20110;-46
2023/08/28 03:08:38;;;;;;;13.65;8.32;;;;;;;23.85;56.11;99194.75;5053056;28;20036;-43
2023/08/28 03:11:03;;;;;;;16.80;11.93;;;;;;;23.93;55.82;99194.84;5053223;28;20455;-42
2023/08/28 03:13:29;;;;;;;35.15;20.90;;;;;;;24.00;54.90;99195.22;5053074;28;20382;-46
2023/08/28 03:15:54;;;;;;;10.85;6.97;;;;;;;24.04;54.64;99194.63;5053197;28;20028;-47
2023/08/28 03:18:20;;;;;;;11.10;4.78;;;;;;;23.97;53.77;99187.69;5053219;28;20036;-45
2023/08/28 03:20:45;;;;;;;7.88;4.40;;;;;;;23.87;53.46;99189.81;5053035;28;20029;-48
2023/08/28 03:23:11;;;;;;;6.55;3.80;;;;;;;24.00;52.67;99195.22;5052918;28;20461;-46
2023/08/28 03:25:36;;;;;;;7.57;4.25;;;;;;;24.01;52.40;99193.31;5052610;28;20037;-47
2023/08/28 03:28:06;;;;;;;5.85;3.80;;;;;;;24.00;52.24;99197.13;5052675;28;20048;-44
2023/08/28 03:30:32;;;;;;;6.60;4.13;;;;;;;23.97;51.85;99190.41;5052741;28;20028;-45
2023/08/28 03:32:57;;;;;;;10.27;4.50;;;;;;;23.95;52.02;99184.47;5052246;28;20025;-47
2023/08/28 03:35:23;;;;;;;7.65;3.80;;;;;;;24.04;51.70;99186.47;5052739;28;20104;-46
2023/08/28 03:37:48;;;;;;;18.88;12.07;;;;;;;23.98;51.98;99177.63;5052771;28;20093;-47
2023/08/28 03:40:14;;;;;;;59.20;39.50;;;;;;;23.97;52.06;99184.16;5052477;28;20127;-46
2023/08/28 03:42:39;;;;;;;10.02;4.90;;;;;;;23.81;52.67;99176.34;5052378;28;20024;-46
2023/08/28 03:45:05;;;;;;;8.90;4.38;;;;;;;23.83;52.32;99177.97;5052585;28;20039;-46
2023/08/28 03:47:30;;;;;;;6.85;4.10;;;;;;;23.80;52.05;99171.25;5052141;28;20037;-44
2023/08/28 03:49:56;;;;;;;9.52;4.15;;;;;;;23.81;51.92;99173.63;5051936;28;20576;-46
2023/08/28 03:52:21;;;;;;;5.90;4.00;;;;;;;23.79;52.06;99175.84;5052057;28;20021;-42
2023/08/28 03:54:47;;;;;;;8.90;4.20;;;;;;;23.76;52.26;99179.16;5051779;28;20033;-46
2023/08/28 03:57:12;;;;;;;8.85;4.13;;;;;;;24.10;51.55;99182.53;5051847;28;20021;-46
2023/08/28 03:59:37;;;;;;;6.07;4.20;;;;;;;24.06;51.64;99185.03;5052047;28;20025;-47
2023/08/28 04:02:03;;;;;;;8.25;4.60;;;;;;;24.10;51.83;99177.88;5051593;28;20099;-43
2023/08/28 04:04:28;;;;;;;7.78;4.20;;;;;;;24.28;51.61;99188.91;5052203;28;20115;-42
2023/08/28 04:06:57;;;;;;;7.55;4.00;;;;;;;24.33;51.58;99188.78;5051582;28;20468;-42
2023/08/28 04:09:22;;;;;;;7.13;4.38;;;;;;;24.40;51.35;99203.53;5050781;28;20427;-43
2023/08/28 04:11:47;;;;;;;31.67;20.33;;;;;;;24.51;51.35;99198.72;5052100;28;20029;-43
2023/08/28 04:14:13;;;;;;;9.32;5.72;;;;;;;24.62;51.11;99207.44;5051757;28;20055;-44
2023/08/28 04:16:39;;;;;;;8.13;4.50;;;;;;;24.75;50.67;99209.28;5051772;28;20068;-42
2023/08/28 04:19:05;;;;;;;9.43;4.40;;;;;;;24.84;50.49;99209.31;5051784;28;20082;-43
2023/08/28 04:21:30;;;;;;;7.18;4.47;;;;;;;24.96;50.26;99220.44;5052033;28;20033;-43
2023/08/28 04:23:56;;;;;;;7.38;4.30;;;;;;;25.07;50.05;99220.97;5051512;28;20405;-42
2023/08/28 04:26:21;;;;;;;10.32;5.38;;;;;;;25.13;49.64;99216.19;5050859;28;20440;-43
2023/08/28 04:28:47;;;;;;;9.57;5.53;;;;;;;25.23;49.16;99212.44;5051602;28;20021;-47
2023/08/28 04:31:13;;;;;;;7.00;5.00;;;;;;;25.36;48.86;99208.81;5051245;28;20021;-45
2023/08/28 04:33:39;;;;;;;9.52;5.18;;;;;;;25.38;49.02;99200.31;5051687;28;20038;-44
2023/08/28 04:36:04;;;;;;;10.35;5.50;;;;;;;25.61;48.47;99201.84;5051664;28;20021;-46
2023/08/28 04:38:30;;;;;;;8.07;4.65;;;;;;;25.66;47.88;99206.31;5051801;28;20444;-43
2023/08/28 04:40:55;;;;;;;6.32;4.53;;;;;;;25.88;48.19;99206.22;5051536;28;20045;-43
2023/08/28 04:43:21;;;;;;;5.65;4.28;;;;;;;26.11;47.56;99204.16;5051289;28;20476;-43
2023/08/28 04:45:49;;;;;;;22.15;14.98;;;;;;;26.31;46.90;99200.03;5051278;28;20056;-45
2023/08/28 04:48:14;;;;;;;8.82;6.53;;;;;;;26.56;46.45;99200.31;5051419;28;20032;-44
2023/08/28 04:50:41;;;;;;;6.53;4.85;;;;;;;26.47;46.37;99200.31;5050418;28;20025;-43
2023/08/28 04:53:07;;;;;;;7.20;4.80;;;;;;;26.58;46.43;99200.78;5050675;28;20409;-43
2023/08/28 04:55:32;;;;;;;8.15;4.35;;;;;;;26.79;46.09;99197.41;5050693;28;20031;-44
2023/08/28 04:57:58;;;;;;;8.57;4.85;;;;;;;26.89;45.84;99192.41;5050689;28;20031;-43
2023/08/28 05:00:23;;;;;;;8.45;4.57;;;;;;;26.99;45.66;99198.63;5050745;28;20499;-44
2023/08/28 05:02:48;;;;;;;6.40;4.35;;;;;;;27.22;45.64;99201.94;5050617;28;20025;-45
2023/08/28 05:05:14;;;;;;;7.22;4.53;;;;;;;27.58;44.53;99201.47;5051207;28;20535;-44
2023/08/28 05:07:39;;;;;;;5.95;4.53;;;;;;;28.20;42.91;99197.22;5050909;28;20029;-42
2023/08/28 05:10:05;;;;;;;6.15;4.55;;;;;;;28.46;42.55;99196.16;5050802;28;20035;-43
2023/08/28 05:12:30;;;;;;;5.43;4.60;;;;;;;28.18;43.38;99201.41;5050031;28;20028;-43
2023/08/28 05:14:56;;;;;;;9.13;4.63;;;;;;;28.22;42.49;99200.41;5051626;28;20116;-43
2023/08/28 05:17:22;;;;;;;5.88;4.60;;;;;;;28.49;42.40;99195.50;5051029;28;20021;-45
2023/08/28 05:19:47;;;;;;;6.60;4.60;;;;;;;28.61;42.11;99192.81;5051094;28;20028;-42
2023/08/28 05:22:12;;;;;;;8.98;4.25;;;;;;;28.70;42.16;99197.44;5051382;28;20021;-44
2023/08/28 05:24:38;;;;;;;6.80;4.13;;;;;;;29.07;41.47;99201.03;5050686;28;20108;-44
2023/08/28 05:27:04;;;;;;;6.90;4.20;;;;;;;28.86;42.11;99192.91;5050952;28;20100;-42
2023/08/28 05:29:29;;;;;;;9.55;4.45;;;;;;;28.95;42.38;99206.50;5051077;28;20079;-45
2023/08/28 05:31:54;;;;;;;7.78;4.30;;;;;;;29.44;41.40;99204.63;5050917;28;20036;-44
2023/08/28 05:34:20;;;;;;;6.28;4.38;;;;;;;29.73;41.08;99210.25;5050964;28;20033;-44
2023/08/28 05:36:45;;;;;;;7.65;4.20;;;;;;;29.60;41.30;99209.41;5051264;28;20033;-44
2023/08/28 05:39:11;;;;;;;7.43;4.35;;;;;;;29.85;40.90;99212.97;5050767;28;20469;-43
2023/08/28 05:41:36;;;;;;;5.47;4.22;;;;;;;30.19;39.69;99210.81;5050067;28;20640;-46
2023/08/28 05:44:02;;;;;;;6.32;4.15;;;;;;;30.35;39.86;99214.47;5051061;28;20110;-45
2023/08/28 05:46:27;;;;;;;6.97;4.10;;;;;;;30.60;39.44;99222.59;5050661;28;20072;-43
2023/08/28 05:48:53;;;;;;;6.15;4.18;;;;;;;30.62;39.24;99217.56;5050560;28;20021;-45
2023/08/28 05:51:18;;;;;;;5.97;4.03;;;;;;;30.97;38.61;99214.97;5050357;28;20125;-43
2023/08/28 05:53:44;;;;;;;6.60;4.50;;;;;;;31.14;38.39;99215.78;5050535;28;20025;-45
2023/08/28 05:56:09;;;;;;;11.95;4.70;;;;;;;31.42;38.22;99214.91;5050722;28;20029;-43
2023/08/28 05:58:35;;;;;;;8.50;4.60;;;;;;;31.51;37.84;99204.53;5050942;28;20033;-44
2023/08/28 06:01:00;;;;;;;6.68;4.05;;;;;;;31.56;38.37;99209.75;5050596;28;20480;-42
2023/08/28 06:03:25;;;;;;;6.78;4.03;;;;;;;31.65;37.99;99209.56;5049704;28;20046;-43
2023/08/28 06:05:51;;;;;;;6.43;4.15;;;;;;;31.88;37.56;99212.44;5050672;28;20044;-43
2023/08/28 06:08:16;;;;;;;8.68;4.05;;;;;;;31.80;38.03;99205.19;5049721;28;20029;-43
2023/08/28 06:10:42;;;;;;;9.52;4.40;;;;;;;32.34;37.02;99205.19;5049649;28;20472;-44
2023/08/28 06:13:08;;;;;;;7.50;4.88;;;;;;;32.54;36.66;99213.44;5050207;28;20022;-43
2023/08/28 06:15:34;;;;;;;7.43;4.47;;;;;;;32.77;36.55;99213.50;5050718;28;20029;-44
2023/08/28 06:17:59;;;;;;;4.88;3.88;;;;;;;33.13;35.84;99213.34;5050680;28;20112;-42
2023/08/28 06:20:25;;;;;;;5.28;3.90;;;;;;;33.08;35.92;99215.22;5050498;28;20405;-45
2023/08/28 06:22:50;;;;;;;5.70;4.18;;;;;;;33.18;35.62;99224.06;5050538;28;20044;-43
2023/08/28 06:25:16;;;;;;;7.65;4.80;;;;;;;33.18;34.85;99213.84;5053805;28;20021;-44
2023/08/28 06:27:41;;;;;;;9.00;4.75;;;;;;;33.29;34.74;99212.06;5053972;28;20405;-45
2023/08/28 06:30:07;;;;;;;8.20;4.60;;;;;;;33.37;34.61;99212.97;5054084;28;20028;-43
2023/08/28 06:32:33;;;;;;;10.68;4.65;;;;;;;34.33;33.54;99207.25;5053748;28;20070;-43
2023/08/28 06:34:59;;;;;;;7.10;4.15;;;;;;;34.21;33.05;99207.50;5054110;28;20017;-42
2023/08/28 06:37:24;;;;;;;7.22;4.00;;;;;;;34.02;33.41;99203.66;5054136;28;20048;-46
2023/08/28 06:39:51;;;;;;;9.05;4.40;;;;;;;34.04;33.17;99204.13;5053610;28;20442;-45
2023/08/28 06:42:17;;;;;;;7.03;4.32;;;;;;;33.99;32.97;99211.94;5053428;28;20025;-46
2023/08/28 06:44:43;;;;;;;8.07;4.68;;;;;;;34.02;32.71;99211.16;5053999;28;20493;-43
2023/08/28 06:47:08;;;;;;;9.48;4.75;;;;;;;34.27;32.40;99214.25;5053760;28;20538;-45
2023/08/28 06:49:34;;;;;;;8.68;4.20;;;;;;;34.60;32.46;99219.00;5054013;28;20029;-45
2023/08/28 06:51:59;;;;;;;5.30;4.10;;;;;;;35.30;30.44;99211.00;5053541;28;20021;-43
2023/08/28 06:54:25;;;;;;;7.72;4.55;;;;;;;34.76;31.49;99198.66;5052301;28;20473;-43
2023/08/28 06:56:51;;;;;;;10.10;4.97;;;;;;;34.64;31.68;99202.47;5053496;28;20091;-44
2023/08/28 06:59:17;;;;;;;13.05;4.72;;;;;;;34.55;31.56;99193.69;5053746;28;20028;-43
2023/08/28 07:01:43;;;;;;;8.52;4.43;;;;;;;34.00;32.34;99191.44;5053334;28;20035;-43
2023/08/28 07:04:09;;;;;;;9.13;4.75;;;;;;;34.14;32.23;99188.03;5053527;28;20518;-44
2023/08/28 07:06:34;;;;;;;6.28;4.82;;;;;;;34.03;31.88;99185.94;5053315;28;20021;-45
2023/08/28 07:08:59;;;;;;;6.55;4.40;;;;;;;34.88;31.61;99192.88;5053227;28;20025;-43
2023/08/28 07:11:25;;;;;;;11.93;4.10;;;;;;;35.27;30.49;99183.34;5052041;28;20167;-44
2023/08/28 07:13:50;;;;;;;7.63;4.50;;;;;;;34.52;31.62;99189.72;5053232;28;20468;-44
2023/08/28 07:16:16;;;;;;;6.38;4.72;;;;;;;34.53;31.35;99184.97;5053465;28;20025;-44
2023/08/28 07:18:43;;;;;;;7.10;4.45;;;;;;;34.41;31.65;99192.34;5053375;28;20021;-43
2023/08/28 07:21:09;;;;;;;7.82;4.28;;;;;;;34.38;31.76;99189.53;5053357;28;20025;-42
2023/08/28 07:23:36;;;;;;;6.47;4.40;;;;;;;34.21;31.91;99188.94;5053283;28;20418;-44
2023/08/28 07:26:02;;;;;;;7.30;4.38;;;;;;;33.71;32.45;99191.03;5053095;28;20096;-43
2023/08/28 07:28:28;;;;;;;7.03;4.47;;;;;;;33.93;32.30;99192.13;5053276;28;20040;-44
2023/08/28 07:31:02;;;;;;;5.40;4.30;;;;;;;33.78;32.37;99193.91;5053015;28;20447;-44
2023/08/28 07:33:27;;;;;;;9.30;4.57;;;;;;;34.17;32.20;99204.69;5053072;28;20029;-44
2023/08/28 07:35:53;;;;;;;8.98;4.50;;;;;;;34.74;30.72;99209.28;5052010;28;20502;-43
2023/08/28 07:38:18;;;;;;;11.15;4.30;;;;;;;34.71;31.00;99207.28;5052908;28;20437;-43
2023/08/28 07:40:47;;;;;;;7.72;4.43;;;;;;;34.68;31.55;99219.88;5051132;28;20052;-45
2023/08/28 07:43:12;;;;;;;;;;;;;;;34.22;31.43;99215.41;5052965;28;20499;-45
2023/08/28 07:45:38;;;;;;;7.90;4.50;;;;;;;34.24;31.76;99207.53;5051164;28;20009;-44
2023/08/28 07:48:04;;;;;;;9.60;4.45;;;;;;;34.21;31.11;99205.50;5052722;28;20438;-43
2023/08/28 07:50:30;;;;;;;8.13;4.55;;;;;;;34.38;31.67;99195.06;5052421;28;20171;-44
2023/08/28 07:52:57;;;;;;;8.00;4.60;;;;;;;34.79;31.00;99211.72;5052655;28;20386;-45
2023/08/28 07:55:22;;;;;;;6.82;4.38;;;;;;;34.80;30.92;99207.75;5052556;28;20028;-48
2023/08/28 07:57:48;;;;;;;10.38;4.40;;;;;;;35.22;30.07;99218.47;5052515;28;20021;-43
2023/08/28 08:00:15;;;;;;;7.47;4.38;;;;;;;35.33;29.87;99215.75;5052510;28;20035;-43
2023/08/28 08:02:41;;;;;;;8.23;4.45;;;;;;;34.88;30.59;99216.91;5052417;28;20108;-43
2023/08/28 08:05:10;;;;;;;7.13;4.07;;;;;;;34.69;30.77;99210.44;5052389;28;20025;-44
2023/08/28 08:07:37;;;;;;;6.00;4.20;;;;;;;34.98;30.26;99207.94;5052119;28;20067;-45
2023/08/28 08:10:02;;;;;;;7.60;4.25;;;;;;;35.47;30.02;99208.75;5052028;28;20031;-43
2023/08/28 08:12:28;;;;;;;7.22;4.47;;;;;;;35.40;29.67;99209.50;5052665;28;20021;-44
2023/08/28 08:14:53;;;;;;;7.45;4.60;;;;;;;36.13;28.76;99203.22;5051654;28;20634;-44
2023/08/28 08:17:19;;;;;;;9.02;4.70;;;;;;;35.52;28.54;99205.63;5051594;28;20048;-44
2023/08/28 08:19:44;;;;;;;6.90;5.20;;;;;;;35.19;29.31;99199.84;5051655;28;20132;-45
2023/08/28 08:22:10;;;;;;;6.95;4.40;;;;;;;34.80;29.97;99199.47;5051741;28;20045;-44
2023/08/28 08:24:36;;;;;;;8.48;4.45;;;;;;;34.96;29.94;99202.00;5051319;28;20469;-41
2023/08/28 08:27:01;;;;;;;9.25;5.00;;;;;;;34.97;29.74;99195.28;5051281;28;20021;-43
2023/08/28 08:29:27;;;;;;;7.28;4.70;;;;;;;35.42;29.39;99191.34;5051160;28;20025;-44
2023/08/28 08:31:52;;;;;;;7.00;4.57;;;;;;;35.64;28.41;99191.47;5051893;28;20109;-43
2023/08/28 08:34:20;;;;;;;8.70;4.80;;;;;;;35.81;28.32;99184.47;5051728;28;20362;-46
2023/08/28 08:36:46;;;;;;;10.43;4.05;;;;;;;36.20;28.08;99170.06;5051419;28;20023;-45
2023/08/28 08:39:11;;;;;;;6.55;4.18;;;;;;;36.49;27.27;99168.13;5051266;28;20403;-44
2023/08/28 08:41:39;;;;;;;8.00;4.75;;;;;;;36.55;26.89;99171.31;5051351;28;20496;-42
2023/08/28 08:44:05;;;;;;;8.80;4.72;;;;;;;36.27;27.33;99163.72;5051470;28;20087;-44
2023/08/28 08:46:31;;;;;;;9.73;5.55;;;;;;;36.03;27.74;99163.22;5051362;28;20112;-45
2023/08/28 08:48:59;;;;;;;6.63;4.60;;;;;;;35.87;28.09;99158.03;5051232;28;20385;-44
2023/08/28 08:51:30;;;;;;;9.63;4.63;;;;;;;35.30;28.81;99165.97;5051265;28;20044;-43
2023/08/28 08:54:04;;;;;;;8.93;4.60;;;;;;;35.18;28.88;99153.25;5051581;28;20021;-45
2023/08/28 08:56:36;;;;;;;7.75;4.50;;;;;;;34.88;29.08;99154.19;5051319;28;20032;-42
2023/08/28 08:59:03;;;;;;;5.90;4.05;;;;;;;34.98;29.58;99147.94;5051192;28;20035;-43
2023/08/28 09:01:30;;;;;;;5.78;4.03;;;;;;;34.91;29.41;99142.34;5051060;28;20024;-42
2023/08/28 09:03:58;;;;;;;7.10;4.25;;;;;;;35.27;28.53;99145.41;5050860;28;20028;-43
2023/08/28 09:06:25;;;;;;;6.70;4.40;;;;;;;34.84;28.63;99145.03;5051126;28;20025;-45
2023/08/28 09:08:51;;;;;;;6.97;4.47;;;;;;;34.61;29.93;99153.47;5051062;28;20036;-45
2023/08/28 09:11:17;;;;;;;6.13;4.70;;;;;;;34.21;30.02;99136.50;5050907;28;20389;-42
2023/08/28 09:13:42;;;;;;;9.32;4.78;;;;;;;34.52;30.04;99134.47;5051077;28;20021;-45
2023/08/28 09:16:08;;;;;;;8.15;4.60;;;;;;;34.47;29.88;99126.53;5050826;28;20537;-44
2023/08/28 09:18:33;;;;;;;6.78;3.90;;;;;;;34.54;29.89;99132.13;5050468;28;20499;-43
2023/08/28 09:21:17;;;;;;;6.22;4.35;;;;;;;34.59;30.12;99129.00;5050803;28;20036;-43
2023/08/28 09:23:45;;;;;;;6.05;4.43;;;;;;;34.33;30.10;99132.72;5050591;28;20013;-43
2023/08/28 09:26:19;;;;;;;10.25;4.35;;;;;;;33.86;30.29;99101.00;5050118;28;20516;-41
2023/08/28 09:28:59;;;;;;;6.65;4.28;;;;;;;33.79;31.33;99111.94;5050367;28;20390;-44
2023/08/28 09:31:29;;;;;;;8.02;4.38;;;;;;;33.72;31.40;99104.38;5050534;28;20444;-42
2023/08/28 09:33:54;;;;;;;5.82;4.18;;;;;;;33.99;30.74;99107.06;5050400;28;20021;-47
2023/08/28 09:36:20;;;;;;;5.65;4.25;;;;;;;34.17;29.97;99108.06;5050286;28;20024;-45
2023/08/28 09:38:45;;;;;;;8.52;4.10;;;;;;;33.84;30.19;99095.84;5050535;28;20117;-43
2023/08/28 09:41:11;;;;;;;8.80;3.95;;;;;;;34.18;30.63;99100.59;5049970;28;20182;-43
2023/08/28 09:43:37;;;;;;;6.53;3.90;;;;;;;34.22;30.11;99107.75;5050202;28;20047;-44
2023/08/28 09:46:06;;;;;;;6.90;3.90;;;;;;;34.65;29.57;99093.53;5050327;28;20036;-44
2023/08/28 09:48:32;;;;;;;4.32;3.80;;;;;;;34.96;29.68;99095.00;5050738;28;20025;-44
2023/08/28 09:51:06;;;;;;;5.78;3.95;;;;;;;35.34;28.39;99090.16;5050541;28;20029;-44
2023/08/28 09:53:32;;;;;;;7.40;3.88;;;;;;;35.59;28.44;99084.75;5050297;28;20100;-44
2023/08/28 09:55:58;;;;;;;5.38;3.88;;;;;;;35.88;28.48;99073.81;5050147;28;20358;-43
2023/08/28 09:58:27;;;;;;;7.18;4.20;;;;;;;35.98;28.48;99075.81;5050742;28;20086;-42
2023/08/28 10:00:54;;;;;;;7.90;4.13;;;;;;;36.04;28.12;99070.69;5054393;28;20020;-43
2023/08/28 10:03:21;;;;;;;5.07;4.13;;;;;;;36.18;28.08;99061.66;5054041;28;20029;-48
2023/08/28 10:05:50;;;;;;;3.90;3.50;;;;;;;36.23;27.96;99066.78;5054055;28;20078;-44
2023/08/28 10:08:15;;;;;;;;;;;;;;;36.26;27.40;99068.00;5054589;28;20457;-44
2023/08/28 10:10:47;;;;;;;7.15;4.40;;;;;;;35.43;28.58;99064.91;5054615;28;19916;-42
2023/08/28 10:13:14;;;;;;;5.40;3.97;;;;;;;35.74;28.66;99062.72;5054259;28;20028;-45
2023/08/28 10:16:03;;;;;;;4.55;3.35;;;;;;;35.10;28.52;99057.59;5054367;28;20036;-42
2023/08/28 10:18:39;;;;;;;7.27;4.03;;;;;;;35.53;28.28;99055.06;5054597;28;20546;-44
2023/08/28 10:21:06;;;;;;;8.23;4.10;;;;;;;35.85;28.01;99057.97;5054454;28;20029;-41
2023/08/28 10:23:33;;;;;;;5.15;3.78;;;;;;;36.56;27.30;99051.03;5053841;28;20439;-46
2023/08/28 10:25:59;;;;;;;4.43;3.42;;;;;;;36.62;27.23;99054.19;5053916;28;20079;-43
2023/08/28 10:28:25;;;;;;;5.10;3.88;;;;;;;36.36;26.96;99054.16;5054190;28;20021;-45
2023/08/28 10:30:51;;;;;;;3.65;3.22;;;;;;;35.60;28.50;99052.34;5053513;28;20056;-44
2023/08/28 10:33:21;;;;;;;6.40;3.70;;;;;;;35.92;28.02;99048.91;5053832;28;20532;-45
2023/08/28 10:35:52;;;;;;;4.18;3.42;;;;;;;36.15;27.28;99041.03;5053749;28;20021;-43
2023/08/28 10:38:21;;;;;;;7.20;3.70;;;;;;;36.43;26.67;99047.84;5053903;28;20469;-43
2023/08/28 10:40:49;;;;;;;4.80;3.40;;;;;;;36.67;26.55;99040.75;5053674;28;20076;-43
2023/08/28 10:43:19;;;;;;;5.30;3.90;;;;;;;36.58;26.88;99041.13;5053751;28;20104;-42
2023/08/28 10:45:46;;;;;;;5.53;3.67;;;;;;;35.96;27.07;99038.66;5053957;28;20033;-42
2023/08/28 10:48:11;;;;;;;6.50;3.60;;;;;;;35.90;26.51;99037.44;5053514;28;20025;-43
2023/08/28 10:50:38;;;;;;;5.60;3.50;;;;;;;35.92;26.56;99021.25;5053615;28;20029;-43
2023/08/28 10:53:05;;;;;;;5.05;3.40;;;;;;;35.81;27.36;99033.09;5053370;28;20025;-42
2023/08/28 10:55:30;;;;;;;6.57;4.05;;;;;;;35.69;28.05;99024.34;5053484;28;20093;-43
2023/08/28 10:58:01;;;;;;;9.02;4.03;;;;;;;35.86;27.74;99026.38;5053201;28;20021;-43
2023/08/28 11:00:28;;;;;;;4.30;3.40;;;;;;;35.88;27.35;99014.91;5053169;28;20043;-45
2023/08/28 11:03:14;;;;;;;8.00;3.70;;;;;;;36.52;26.76;99011.41;5052849;28;20017;-43
2023/08/28 11:05:41;;;;;;;4.72;3.80;;;;;;;36.63;26.43;99014.97;5053094;28;20033;-49
2023/08/28 11:08:08;;;;;;;5.32;3.38;;;;;;;36.52;26.33;99014.19;5053231;28;20357;-44
2023/08/28 11:10:35;;;;;;;6.03;3.85;;;;;;;36.07;26.73;99013.75;5053333;28;20104;-44
2023/08/28 11:13:08;;;;;;;5.68;3.22;;;;;;;36.09;26.24;99006.63;5053358;28;20024;-43
2023/08/28 11:15:41;;;;;;;5.18;3.25;;;;;;;36.44;25.83;99001.53;5053245;28;20025;-43
2023/08/28 11:18:29;;;;;;;4.53;3.20;;;;;;;36.57;25.97;98997.97;5053017;28;20028;-44
2023/08/28 11:21:03;;;;;;;4.45;3.10;;;;;;;36.64;25.67;98996.41;5053099;28;20032;-43
2023/08/28 11:23:36;;;;;;;3.65;3.20;;;;;;;36.25;26.90;98994.41;5052536;28;20471;-45
2023/08/28 11:26:22;;;;;;;4.75;3.40;;;;;;;36.65;26.32;98986.88;5053405;28;20032;-44
2023/08/28 11:28:49;;;;;;;5.63;3.47;;;;;;;36.08;26.64;98982.91;5045207;28;20041;-45
2023/08/28 11:31:15;;;;;;;4.78;3.13;;;;;;;35.52;26.52;98984.34;5052696;28;20075;-46